Time;durP1;ratioP1;P1;durP2;ratioP2;P2;SDS_P1;SDS_P2;PMS_P1;PMS_P2;Temp;Humidity;BMP_temperature;BMP_pressure;BME280_temperature;BME280_humidity;BME280_pressure;Samples;Min_cycle;Max_cycle;Signal;HPM_P1;HPM_P2
2023/03/29 00:00:18;;;;;;;;;;;;;;;16.31;18.40;98743.88;5069692;28;19917;-84
2023/03/29 00:02:47;;;;;;;;;;;;;;;16.04;19.67;98733.84;5051748;28;19963;-84
2023/03/29 00:05:13;;;;;;;;;;;;;;;16.16;18.77;98738.44;5048428;28;19932;-84
2023/03/29 00:07:40;;;;;;;;;;;;;;;16.62;19.49;98728.28;5050494;28;19935;-84
2023/03/29 00:10:08;;;;;;;;;;;;;;;16.97;18.60;98732.47;5033230;28;20019;-84
2023/03/29 00:12:35;;;;;;;;;;;;;;;16.87;18.72;98727.56;5047711;28;19927;-84
2023/03/29 00:15:02;;;;;;;;;;;;;;;16.47;19.53;98735.50;5055234;28;19928;-84
2023/03/29 00:17:29;;;;;;;;;;;;;;;16.21;20.47;98746.47;5053640;28;20361;-84
2023/03/29 00:19:55;;;;;;;;;;;;;;;16.40;19.61;98738.94;5052474;28;19928;-84
2023/03/29 00:22:21;;;;;;;;;;;;;;;16.74;19.02;98736.41;5056596;28;19924;-84
2023/03/29 00:24:47;;;;;;;;;;;;;;;16.87;18.79;98744.19;5052789;28;19966;-84
2023/03/29 00:27:14;;;;;;;;;;;;;;;16.98;18.64;98745.19;5053715;28;19921;-83
2023/03/29 00:29:40;;;;;;;;;;;;;;;17.01;17.88;98749.19;5045657;28;19921;-83
2023/03/29 00:32:06;;;;;;;;;;;;;;;16.91;18.82;98742.28;5051874;28;20280;-84
2023/03/29 00:34:34;;;;;;;;;;;;;;;16.95;18.66;98745.91;5050656;28;19920;-83
2023/03/29 00:37:02;;;;;;;;;;;;;;;17.09;18.30;98748.94;5051495;28;19920;-84
2023/03/29 00:39:29;;;;;;;;;;;;;;;17.20;18.27;98747.13;5049988;28;19940;-84
2023/03/29 00:41:55;;;;;;;;;;;;;;;17.21;18.77;98753.47;5047457;28;19925;-83
2023/03/29 00:44:39;;;;;;;;;;;;;;;16.98;18.03;98744.38;5049534;28;19929;-83
2023/03/29 00:47:06;;;;;;;;;;;;;;;17.00;18.18;98747.56;5048447;28;20060;-84
2023/03/29 00:49:34;;;;;;;;;;;;;;;16.46;19.95;98748.56;5042748;28;19920;-84
2023/03/29 00:52:00;;;;;;;;;;;;;;;16.19;19.38;98746.84;5049663;28;19925;-84
2023/03/29 00:54:26;;;;;;;;;;;;;;;16.25;19.20;98744.56;5049715;28;19928;-84
2023/03/29 00:56:53;;;;;;;;;;;;;;;16.03;19.48;98740.56;5050064;28;20070;-83
2023/03/29 00:59:22;;;;;;;;;;;;;;;15.95;19.77;98741.56;5045420;28;19925;-84
2023/03/29 01:01:53;;;;;;;;;;;;;;;15.82;20.71;98743.66;5045998;28;19933;-84
2023/03/29 01:04:29;;;;;;;;;;;;;;;15.94;19.60;98736.41;5046808;28;20072;-83
2023/03/29 01:06:58;;;;;;;;;;;;;;;16.10;19.32;98739.91;5047854;28;19925;-84
2023/03/29 01:09:26;;;;;;;;;;;;;;;16.02;20.14;98730.66;5046294;28;19920;-84
2023/03/29 01:11:54;;;;;;;;;;;;;;;16.10;19.49;98731.59;5047327;28;19928;-84
2023/03/29 01:14:23;;;;;;;;;;;;;;;16.45;18.79;98732.31;5045938;28;19963;-83
2023/03/29 01:16:50;;;;;;;;;;;;;;;16.65;18.38;98727.53;5043827;28;19951;-83
2023/03/29 01:19:20;;;;;;;;;;;;;;;16.95;18.61;98717.38;5043215;28;19928;-83
2023/03/29 01:21:51;;;;;;;;;;;;;;;17.22;18.76;98724.56;5046948;28;19924;-83
2023/03/29 01:24:31;;;;;;;;;;;;;;;17.37;18.51;98720.81;5047921;28;20371;-84
2023/03/29 01:27:08;;;;;;;;;;;;;;;17.47;18.22;98713.84;5047829;28;20015;-84
2023/03/29 01:29:37;;;;;;;;;;;;;;;17.60;18.31;98720.78;5044145;28;20026;-83
2023/03/29 01:32:03;;;;;;;;;;;;;;;17.73;17.90;98719.41;5045380;28;19928;-83
2023/03/29 01:34:34;;;;;;;;;;;;;;;17.75;17.77;98717.84;5047255;28;19960;-84
2023/03/29 01:37:03;;;;;;;;;;;;;;;17.69;18.07;98713.00;5047973;28;19921;-83
2023/03/29 01:39:32;;;;;;;;;;;;;;;17.66;17.55;98711.78;5046735;28;19927;-84
2023/03/29 01:42:04;;;;;;;;;;;;;;;17.42;18.12;98714.97;5052285;28;19928;-83
2023/03/29 01:44:34;;;;;;;;;;;;;;;17.50;17.93;98715.88;5050397;28;19925;-84
2023/03/29 01:47:09;;;;;;;;;;;;;;;17.45;17.87;98718.97;5053223;28;20255;-84
2023/03/29 01:49:41;;;;;;;;;;;;;;;17.45;17.73;98718.97;5049472;28;20432;-84
2023/03/29 01:52:10;;;;;;;;;;;;;;;17.38;18.13;98714.13;5052074;28;20257;-84
2023/03/29 01:54:43;;;;;;;;;;;;;;;17.39;18.10;98717.66;5052396;28;19928;-84
2023/03/29 01:57:10;;;;;;;;;;;;;;;17.40;17.74;98719.28;5054681;28;19925;-84
2023/03/29 01:59:39;;;;;;;;;;;;;;;17.46;17.66;98718.56;5052170;28;19941;-84
2023/03/29 02:02:10;;;;;;;;;;;;;;;17.28;18.08;98718.31;5052965;28;19966;-84
2023/03/29 02:04:38;;;;;;;;;;;;;;;17.36;18.09;98718.44;5048146;28;19959;-84
2023/03/29 02:07:07;;;;;;;;;;;;;;;17.12;18.89;98723.22;5053690;28;19921;-84
2023/03/29 02:09:36;;;;;;;;;;;;;;;16.93;18.42;98725.25;5052890;28;20000;-84
2023/03/29 02:12:03;;;;;;;;;;;;;;;16.88;18.44;98720.03;5054812;28;20308;-84
2023/03/29 02:14:29;;;;;;;;;;;;;;;16.57;18.74;98710.78;5057158;28;20449;-84
2023/03/29 02:16:55;;;;;;;;;;;;;;;16.13;19.15;98726.13;5054924;28;19924;-84
2023/03/29 02:19:23;;;;;;;;;;;;;;;16.02;18.85;98716.78;5054783;28;20287;-84
2023/03/29 02:22:09;;;;;;;;;;;;;;;16.12;18.87;98729.25;5049721;28;19932;-84
2023/03/29 02:24:35;;;;;;;;;;;;;;;16.03;18.82;98723.16;5055286;28;19921;-84
2023/03/29 02:27:02;;;;;;;;;;;;;;;16.17;18.36;98720.66;5059595;28;19921;-84
2023/03/29 02:29:28;;;;;;;;;;;;;;;16.31;18.50;98724.50;5052087;28;19952;-83
2023/03/29 02:32:03;;;;;;;;;;;;;;;16.35;18.25;98714.31;5053584;28;19921;-84
2023/03/29 02:34:32;;;;;;;;;;;;;;;16.24;18.22;98713.28;5053185;28;19940;-84
2023/03/29 02:37:02;;;;;;;;;;;;;;;16.22;18.70;98720.38;5055289;28;20023;-84
2023/03/29 02:39:31;;;;;;;;;;;;;;;16.11;18.64;98720.16;5052129;28;20307;-84
2023/03/29 02:42:01;;;;;;;;;;;;;;;16.15;18.36;98723.00;5049643;28;19927;-84
2023/03/29 02:44:29;;;;;;;;;;;;;;;16.08;18.54;98714.53;5066413;28;19920;-84
2023/03/29 02:46:58;;;;;;;;;;;;;;;15.92;18.84;98722.13;5059907;28;19925;-84
2023/03/29 02:49:24;;;;;;;;;;;;;;;15.98;18.68;98720.66;5060343;28;19928;-84
2023/03/29 02:51:52;;;;;;;;;;;;;;;16.09;18.95;98724.44;5043336;28;19932;-84
2023/03/29 02:54:20;;;;;;;;;;;;;;;16.28;18.52;98722.47;5045546;28;19920;-84
2023/03/29 02:56:48;;;;;;;;;;;;;;;16.50;18.84;98721.69;5046298;28;19921;-83
2023/03/29 02:59:15;;;;;;;;;;;;;;;16.72;18.45;98709.06;5042448;28;22513;-83
2023/03/29 03:01:41;;;;;;;;;;;;;;;16.77;18.01;98713.50;5053237;28;19924;-84
2023/03/29 03:04:08;;;;;;;;;;;;;;;16.82;17.91;98716.78;5047196;28;19973;-84
2023/03/29 03:06:36;;;;;;;;;;;;;;;16.76;17.53;98717.44;5064040;28;19925;-84
2023/03/29 03:09:03;;;;;;;;;;;;;;;16.49;17.58;98722.88;5052831;28;20288;-84
2023/03/29 03:11:30;;;;;;;;;;;;;;;16.20;18.01;98723.50;5053010;28;19921;-84
2023/03/29 03:13:56;;;;;;;;;;;;;;;15.89;18.62;98721.66;5051623;28;20294;-84
2023/03/29 03:16:22;;;;;;;;;;;;;;;15.86;19.16;98716.06;5051821;28;19921;-84
2023/03/29 03:18:50;;;;;;;;;;;;;;;16.09;18.92;98718.91;5048029;28;19927;-83
2023/03/29 03:21:17;;;;;;;;;;;;;;;16.32;18.36;98730.84;5047786;28;19978;-84
2023/03/29 03:23:44;;;;;;;;;;;;;;;16.53;18.25;98717.41;5059382;28;19931;-84
2023/03/29 03:26:11;;;;;;;;;;;;;;;16.48;18.21;98724.03;5053429;28;19943;-84
2023/03/29 03:28:37;;;;;;;;;;;;;;;16.62;18.20;98719.97;5052960;28;20016;-84
2023/03/29 03:31:04;;;;;;;;;;;;;;;16.50;17.75;98721.69;5052818;28;19924;-84
2023/03/29 03:33:30;;;;;;;;;;;;;;;16.59;18.29;98719.53;5053102;28;19921;-84
2023/03/29 03:36:01;;;;;;;;;;;;;;;16.69;17.61;98722.84;5054598;28;20364;-84
2023/03/29 03:38:28;;;;;;;;;;;;;;;16.58;17.70;98720.69;5049157;28;19963;-84
2023/03/29 03:40:55;;;;;;;;;;;;;;;16.16;18.34;98721.81;5068902;28;19921;-84
2023/03/29 03:43:21;;;;;;;;;;;;;;;16.13;18.14;98726.13;5043742;28;20059;-84
2023/03/29 03:45:47;;;;;;;;;;;;;;;16.24;18.02;98734.66;5053952;28;19952;-84
2023/03/29 03:48:13;;;;;;;;;;;;;;;16.05;18.08;98723.56;5048295;28;19925;-84
2023/03/29 03:50:39;;;;;;;;;;;;;;;15.99;17.97;98733.31;5053311;28;20011;-84
2023/03/29 03:53:06;;;;;;;;;;;;;;;16.00;18.29;98730.22;5048540;28;20288;-84
2023/03/29 03:55:32;;;;;;;;;;;;;;;16.00;18.10;98737.72;5054099;28;19924;-85
2023/03/29 03:57:58;;;;;;;;;;;;;;;15.97;17.83;98732.88;5054152;28;19960;-85
2023/03/29 04:00:25;;;;;;;;;;;;;;;16.16;17.45;98738.44;5054084;28;20002;-84
2023/03/29 04:02:53;;;;;;;;;;;;;;;15.98;17.79;98743.63;5032393;28;20055;-84
2023/03/29 04:05:19;;;;;;;;;;;;;;;16.11;17.70;98736.75;5048541;28;20039;-85
2023/03/29 04:07:45;;;;;;;;;;;;;;;16.31;18.01;98734.81;5052464;28;19924;-86
2023/03/29 04:10:12;;;;;;;;;;;;;;;16.45;17.71;98735.06;5051907;28;20343;-85
2023/03/29 04:12:38;;;;;;;;;;;;;;;16.46;17.44;98734.69;5052480;28;20354;-86
2023/03/29 04:15:05;;;;;;;;;;;;;;;16.45;17.19;98729.53;5053737;28;19917;-86
2023/03/29 04:17:31;;;;;;;;;;;;;;;16.46;17.32;98737.47;5045343;28;19975;-90
2023/03/29 04:19:57;;;;;;;;;;;;;;;16.28;17.50;98741.88;5048149;28;20400;-87
2023/03/29 04:22:26;;;;;;;;;;;;;;;16.10;17.46;98739.91;5049407;28;19932;-86
2023/03/29 04:24:52;;;;;;;;;;;;;;;16.20;17.50;98733.75;5039008;28;20015;-86
2023/03/29 04:27:18;;;;;;;;;;;;;;;16.00;17.90;98732.19;5027581;28;20065;-87
2023/03/29 04:29:45;;;;;;;;;;;;;;;16.08;17.69;98734.72;5049025;28;20011;-86
2023/03/29 04:32:11;;;;;;;;;;;;;;;16.26;17.55;98730.34;5049672;28;19963;-87
2023/03/29 04:34:37;;;;;;;;;;;;;;;16.24;17.63;98731.88;5043074;28;19933;-85
2023/03/29 04:37:09;;;;;;;;;;;;;;;16.31;17.37;98734.81;5045609;28;19929;-86
2023/03/29 04:39:35;;;;;;;;;;;;;;;16.36;17.55;98726.19;5044059;28;19925;-85
2023/03/29 04:42:02;;;;;;;;;;;;;;;16.44;17.47;98733.47;5050287;28;19921;-86
2023/03/29 04:44:28;;;;;;;;;;;;;;;16.02;18.33;98727.06;5044856;28;19920;-86
2023/03/29 04:46:54;;;;;;;;;;;;;;;15.73;18.08;98734.78;5043634;28;19929;-84
2023/03/29 04:49:20;;;;;;;;;;;;;;;15.71;18.24;98734.34;5049957;28;19928;-86
2023/03/29 04:51:46;;;;;;;;;;;;;;;16.13;18.46;98736.38;5043982;28;19925;-87
2023/03/29 04:54:12;;;;;;;;;;;;;;;16.56;18.06;98727.78;5050254;28;19920;-91
2023/03/29 04:56:38;;;;;;;;;;;;;;;16.82;18.17;98724.28;5051318;28;20322;-87
2023/03/29 04:59:04;;;;;;;;;;;;;;;16.83;17.83;98720.31;5048583;28;19925;-94
2023/03/29 05:01:30;;;;;;;;;;;;;;;16.84;18.35;98724.72;5040841;28;19928;-88
2023/03/29 05:03:56;;;;;;;;;;;;;;;17.04;17.61;98717.91;5049989;28;20576;-87
2023/03/29 05:06:22;;;;;;;;;;;;;;;17.08;17.77;98714.03;5048182;28;20004;-87
2023/03/29 05:08:48;;;;;;;;;;;;;;;17.15;17.69;98708.59;5052502;28;19936;-87
2023/03/29 05:11:15;;;;;;;;;;;;;;;17.31;18.34;98710.44;5053156;28;19917;-87
2023/03/29 05:13:41;;;;;;;;;;;;;;;17.45;17.50;98714.22;5053413;28;19916;-87
2023/03/29 05:16:07;;;;;;;;;;;;;;;17.31;17.73;98721.53;5035421;28;20461;-87
2023/03/29 05:18:34;;;;;;;;;;;;;;;17.53;17.86;98721.50;5053589;28;20011;-86
2023/03/29 05:21:00;;;;;;;;;;;;;;;17.59;17.25;98714.47;5064884;28;19932;-86
2023/03/29 05:23:27;;;;;;;;;;;;;;;17.58;17.36;98707.28;5075692;28;19971;-86
2023/03/29 05:25:53;;;;;;;;;;;;;;;17.56;17.60;98711.63;5056265;28;20375;-87
2023/03/29 05:28:20;;;;;;;;;;;;;;;17.62;17.94;98705.34;5054760;28;19970;-87
2023/03/29 05:30:47;;;;;;;;;;;;;;;17.91;18.13;98714.88;5051798;28;19963;-87
2023/03/29 05:33:13;;;;;;;;;;;;;;;18.15;17.96;98724.72;5050044;28;19917;-86
2023/03/29 05:35:39;;;;;;;;;;;;;;;18.42;17.75;98723.44;5057940;28;19921;-86
2023/03/29 05:38:05;;;;;;;;;;;;;;;18.51;17.96;98718.38;5057816;28;19943;-86
2023/03/29 05:40:31;;;;;;;;;;;;;;;18.79;17.91;98717.88;5066286;28;19917;-86
2023/03/29 05:42:58;;;;;;;;;;;;;;;18.90;17.20;98724.34;5050102;28;19953;-85
2023/03/29 05:45:27;;;;;;;;;;;;;;;18.88;17.45;98721.16;5049617;28;19924;-86
2023/03/29 05:47:53;;;;;;;;;;;;;;;19.06;17.40;98720.13;5063448;28;19920;-86
2023/03/29 05:50:19;;;;;;;;;;;;;;;19.39;16.18;98718.41;5071643;28;19931;-86
2023/03/29 05:52:46;;;;;;;;;;;;;;;19.17;16.76;98720.22;5058258;28;19921;-86
2023/03/29 05:55:12;;;;;;;;;;;;;;;19.10;16.57;98723.75;5034659;28;19920;-86
2023/03/29 05:57:38;;;;;;;;;;;;;;;18.84;17.43;98715.53;5075282;28;20379;-86
2023/03/29 06:00:22;;;;;;;;;;;;;;;18.90;17.90;98724.34;5053797;28;19948;-86
2023/03/29 06:02:51;;;;;;;;;;;;;;;18.86;16.94;98721.53;5054115;28;19924;-86
2023/03/29 06:05:18;;;;;;;;;;;;;;;18.96;16.96;98722.81;5054108;28;20439;-86
2023/03/29 06:07:45;;;;;;;;;;;;;;;18.91;17.22;98723.16;5053820;28;20276;-85
2023/03/29 06:10:11;;;;;;;;;;;;;;;18.85;17.31;98717.16;5055044;28;19916;-85
2023/03/29 06:12:37;;;;;;;;;;;;;;;18.61;17.77;98721.28;5061025;28;19921;-85
2023/03/29 06:15:04;;;;;;;;;;;;;;;18.73;18.11;98731.34;5056924;28;19940;-86
2023/03/29 06:17:30;;;;;;;;;;;;;;;18.60;18.47;98722.47;5067125;28;19925;-85
2023/03/29 06:19:56;;;;;;;;;;;;;;;18.74;18.42;98721.03;5000066;28;1870244;-86
2023/03/29 06:22:22;;;;;;;;;;;;;;;19.17;17.41;98723.00;5055628;28;19921;-86
2023/03/29 06:24:49;;;;;;;;;;;;;;;19.06;17.49;98720.13;5052492;28;20004;-85
2023/03/29 06:27:15;;;;;;;;;;;;;;;19.31;17.65;98720.31;5056118;28;19917;-85
2023/03/29 06:29:41;;;;;;;;;;;;;;;19.11;17.13;98725.31;5064576;28;19966;-85
2023/03/29 06:32:07;;;;;;;;;;;;;;;18.63;17.65;98724.50;5040470;28;20403;-86
2023/03/29 06:34:33;;;;;;;;;;;;;;;18.76;18.15;98727.81;5050587;28;19921;-85
2023/03/29 06:36:59;;;;;;;;;;;;;;;18.95;17.11;98724.78;5050563;28;19925;-85
2023/03/29 06:39:25;;;;;;;;;;;;;;;18.98;18.28;98737.94;5045502;28;19946;-85
2023/03/29 06:41:51;;;;;;;;;;;;;;;19.13;17.80;98742.47;5053429;28;20430;-85
2023/03/29 06:44:17;;;;;;;;;;;;;;;19.35;16.63;98739.84;5043142;28;19921;-85
2023/03/29 06:46:43;;;;;;;;;;;;;;;19.26;16.83;98740.97;5044970;28;19983;-85
2023/03/29 06:49:10;;;;;;;;;;;;;;;19.03;17.68;98742.34;5051447;28;19920;-85
2023/03/29 06:51:36;;;;;;;;;;;;;;;19.31;18.36;98745.38;5046042;28;19921;-85
2023/03/29 06:54:03;;;;;;;;;;;;;;;19.57;18.27;98739.63;5048136;28;19924;-85
2023/03/29 06:56:30;;;;;;;;;;;;;;;19.56;17.90;98735.25;5044156;28;19923;-85
2023/03/29 06:58:57;;;;;;;;;;;;;;;19.75;16.74;98740.53;5041253;28;19925;-85
2023/03/29 07:01:23;;;;;;;;;;;;;;;19.51;17.21;98732.03;5043271;28;19916;-85
2023/03/29 07:03:49;;;;;;;;;;;;;;;19.21;18.13;98744.09;5048933;28;20408;-85
2023/03/29 07:06:16;;;;;;;;;;;;;;;19.55;17.78;98746.78;5052773;28;20441;-85
2023/03/29 07:08:43;;;;;;;;;;;;;;;19.59;18.49;98751.19;5032539;28;20058;-84
2023/03/29 07:11:11;;;;;;;;;;;;;;;19.88;18.61;98746.59;5053282;28;20431;-85
2023/03/29 07:13:41;;;;;;;;;;;;;;;20.19;16.80;98745.94;5054740;28;19974;-85
2023/03/29 07:16:11;;;;;;;;;;;;;;;20.22;17.27;98749.97;5053717;28;19920;-85
2023/03/29 07:18:40;;;;;;;;;;;;;;;19.39;18.08;98751.84;5052895;28;19920;-84
2023/03/29 07:21:07;;;;;;;;;;;;;;;19.37;19.09;98757.00;5054583;28;20015;-84
2023/03/29 07:23:33;;;;;;;;;;;;;;;19.73;17.81;98756.84;5052113;28;19925;-84
2023/03/29 07:26:00;;;;;;;;;;;;;;;19.67;17.96;98743.69;5053379;28;20380;-84
2023/03/29 07:28:26;;;;;;;;;;;;;;;19.93;18.27;98752.56;5054587;28;19970;-84
2023/03/29 07:30:52;;;;;;;;;;;;;;;19.99;17.20;98756.63;5046169;28;19921;-84
2023/03/29 07:33:18;;;;;;;;;;;;;;;19.85;17.70;98742.59;5042662;28;19928;-84
2023/03/29 07:35:46;;;;;;;;;;;;;;;19.35;17.96;98742.63;5046161;28;20015;-84
2023/03/29 07:38:14;;;;;;;;;;;;;;;19.65;16.34;98746.84;5055214;28;20431;-84
2023/03/29 07:40:40;;;;;;;;;;;;;;;19.67;18.16;98747.28;5047550;28;20303;-84
2023/03/29 07:43:08;;;;;;;;;;;;;;;19.07;18.33;98743.16;5052021;28;19929;-84
2023/03/29 07:45:34;;;;;;;;;;;;;;;19.24;18.56;98739.75;5048162;28;19929;-84
2023/03/29 07:48:00;;;;;;;;;;;;;;;19.66;17.82;98742.88;5027297;28;19951;-84
2023/03/29 07:50:27;;;;;;;;;;;;;;;20.15;17.75;98742.34;5052849;28;19925;-83
2023/03/29 07:52:53;;;;;;;;;;;;;;;20.50;17.79;98736.94;5052548;28;19940;-84
2023/03/29 07:55:19;;;;;;;;;;;;;;;20.03;17.88;98737.09;5057092;28;19925;-85
2023/03/29 07:57:45;;;;;;;;;;;;;;;20.10;17.33;98734.34;5045413;28;19921;-84
2023/03/29 08:00:14;;;;;;;;;;;;;;;19.55;18.30;98732.84;5049389;28;20323;-85
2023/03/29 08:02:41;;;;;;;;;;;;;;;19.45;18.44;98730.78;5045170;28;19928;-85
2023/03/29 08:05:08;;;;;;;;;;;;;;;19.53;17.60;98733.25;5046079;28;19958;-84
2023/03/29 08:07:34;;;;;;;;;;;;;;;19.73;18.43;98726.19;5041049;28;19921;-86
2023/03/29 08:10:00;;;;;;;;;;;;;;;19.61;16.71;98720.16;5043863;28;19986;-84
2023/03/29 08:12:26;;;;;;;;;;;;;;;19.37;15.71;98709.66;5060170;28;19946;-85
2023/03/29 08:14:52;;;;;;;;;;;;;;;19.13;17.84;98714.63;5034166;28;20023;-85
2023/03/29 08:17:18;;;;;;;;;;;;;;;19.66;16.09;98719.78;5047386;28;20317;-85
2023/03/29 08:19:44;;;;;;;;;;;;;;;19.62;17.35;98716.19;5046345;28;19924;-85
2023/03/29 08:22:10;;;;;;;;;;;;;;;19.50;17.89;98717.31;5055375;28;20431;-85
2023/03/29 08:24:36;;;;;;;;;;;;;;;19.82;18.06;98721.06;5053778;28;19916;-84
2023/03/29 08:27:02;;;;;;;;;;;;;;;20.29;16.50;98717.34;5052086;28;19947;-84
2023/03/29 08:29:30;;;;;;;;;;;;;;;19.62;17.26;98719.78;5055311;28;20016;-85
2023/03/29 08:31:57;;;;;;;;;;;;;;;19.88;15.70;98719.50;5042584;28;19975;-85
2023/03/29 08:34:23;;;;;;;;;;;;;;;18.98;17.13;98717.66;5044952;28;19928;-85
2023/03/29 08:36:49;;;;;;;;;;;;;;;19.19;17.93;98723.41;5045398;28;19917;-85
2023/03/29 08:39:15;;;;;;;;;;;;;;;17.89;19.97;98729.16;5045078;28;19967;-85
2023/03/29 08:41:44;;;;;;;;;;;;;;;18.62;20.21;98722.09;5049714;28;20307;-85
2023/03/29 08:44:15;;;;;;;;;;;;;;;19.41;18.32;98721.63;5052976;28;20015;-86
2023/03/29 08:46:47;;;;;;;;;;;;;;;19.60;19.09;98711.00;5056963;28;19963;-85
2023/03/29 08:49:13;;;;;;;;;;;;;;;19.86;17.92;98712.75;5052249;28;19917;-85
2023/03/29 08:51:44;;;;;;;;;;;;;;;19.88;18.85;98708.34;5052438;28;20023;-85
2023/03/29 08:54:25;;;;;;;;;;;;;;;19.27;17.87;98702.78;5055782;28;19956;-85
2023/03/29 08:56:54;;;;;;;;;;;;;;;19.15;17.79;98711.44;5042234;28;20363;-85
2023/03/29 08:59:27;;;;;;;;;;;;;;;20.24;17.08;98708.53;5052319;28;19917;-85
2023/03/29 09:01:55;;;;;;;;;;;;;;;20.38;18.57;98711.38;5053966;28;19928;-85
2023/03/29 09:04:32;;;;;;;;;;;;;;;20.79;18.26;98706.31;5057883;28;19921;-85
2023/03/29 09:06:58;;;;;;;;;;;;;;;21.01;16.32;98702.31;5049780;28;19944;-86
2023/03/29 09:09:30;;;;;;;;;;;;;;;21.15;17.44;98694.78;5049488;28;20392;-85
2023/03/29 09:12:03;;;;;;;;;;;;;;;21.62;16.89;98692.72;5049817;28;20352;-85
2023/03/29 09:14:29;;;;;;;;;;;;;;;21.13;15.87;98688.78;5048302;28;19921;-86
2023/03/29 09:17:15;;;;;;;;;;;;;;;20.35;17.75;98695.44;5047833;28;20395;-85
2023/03/29 09:19:44;;;;;;;;;;;;;;;18.47;20.69;98696.13;5051647;28;20447;-85
2023/03/29 09:22:18;;;;;;;;;;;;;;;20.05;18.96;98687.34;5049339;28;19925;-86
2023/03/29 09:24:50;;;;;;;;;;;;;;;20.58;17.63;98679.16;5050395;28;19932;-86
2023/03/29 09:27:31;;;;;;;;;;;;;;;20.65;17.76;98682.75;5045907;28;19932;-85
2023/03/29 09:30:18;;;;;;;;;;;;;;;20.98;17.79;98678.78;5049423;28;20012;-85
2023/03/29 09:32:44;;;;;;;;;;;;;;;21.09;18.66;98671.25;5036762;28;20012;-87
2023/03/29 09:35:17;;;;;;;;;;;;;;;19.58;17.97;98685.50;5046024;28;19982;-84
2023/03/29 09:37:44;;;;;;;;;;;;;;;19.35;17.92;98679.38;5055996;28;19928;-84
2023/03/29 09:40:18;;;;;;;;;;;;;;;18.85;16.44;98680.19;5048882;28;19921;-84
2023/03/29 09:42:47;;;;;;;;;;;;;;;20.32;18.26;98676.72;5050697;28;19987;-84
2023/03/29 09:45:13;;;;;;;;;;;;;;;21.00;17.99;98673.63;5056304;28;19921;-85
2023/03/29 09:47:43;;;;;;;;;;;;;;;20.27;18.03;98677.91;5047487;28;19917;-85
2023/03/29 09:50:15;;;;;;;;;;;;;;;20.42;17.40;98670.38;5047773;28;19925;-86
2023/03/29 09:52:41;;;;;;;;;;;;;;;20.44;17.77;98660.38;5048704;28;19939;-84
2023/03/29 09:55:11;;;;;;;;;;;;;;;17.77;21.45;98665.50;5053160;28;19929;-83
2023/03/29 09:57:37;;;;;;;;;;;;;;;19.90;20.30;98663.41;5045761;28;19921;-84
2023/03/29 10:00:04;;;;;;;;;;;;;;;20.46;18.85;98666.41;5051582;28;19947;-84
2023/03/29 10:02:31;;;;;;;;;;;;;;;20.08;16.79;98657.88;5046174;28;20373;-84
2023/03/29 10:05:02;;;;;;;;;;;;;;;20.82;17.20;98661.63;5054039;28;19971;-86
2023/03/29 10:07:49;;;;;;;;;;;;;;;21.26;19.33;98650.88;5051659;28;20015;-85
2023/03/29 10:10:34;;;;;;;;;;;;;;;21.25;18.85;98654.88;5054679;28;19928;-87
2023/03/29 10:13:02;;;;;;;;;;;;;;;21.08;15.56;98652.91;5051949;28;19928;-89
2023/03/29 10:15:29;;;;;;;;;;;;;;;20.74;17.98;98648.88;5050924;28;19975;-87
2023/03/29 10:17:59;;;;;;;;;;;;;;;20.19;18.46;98650.34;5052004;28;19921;-88
2023/03/29 10:20:25;;;;;;;;;;;;;;;20.91;18.16;98645.28;5052648;28;19932;-89
2023/03/29 10:22:56;;;;;;;;;;;;;;;20.70;16.32;98645.28;5047208;28;20334;-90
2023/03/29 10:25:27;;;;;;;;;;;;;;;20.71;16.15;98643.28;5048668;28;19925;-87
2023/03/29 10:27:56;;;;;;;;;;;;;;;20.23;18.21;98652.00;5053475;28;19928;-88
2023/03/29 10:30:23;;;;;;;;;;;;;;;20.08;18.05;98646.72;5050206;28;19921;-87
2023/03/29 10:32:56;;;;;;;;;;;;;;;20.07;21.18;98648.72;5055632;28;20377;-89
2023/03/29 10:35:28;;;;;;;;;;;;;;;19.78;17.76;98647.03;5067781;28;20392;-90
2023/03/29 10:37:57;;;;;;;;;;;;;;;19.93;20.71;98643.88;5046926;28;19966;-88
2023/03/29 10:40:28;;;;;;;;;;;;;;;20.63;21.10;98640.50;5035033;28;19944;-88
2023/03/29 10:42:57;;;;;;;;;;;;;;;21.45;17.29;98629.31;5054885;28;19932;-88
2023/03/29 10:45:24;;;;;;;;;;;;;;;21.88;17.24;98622.38;5051257;28;19929;-87
2023/03/29 10:47:53;;;;;;;;;;;;;;;22.60;17.67;98618.75;5034908;28;20011;-90
2023/03/29 10:50:19;;;;;;;;;;;;;;;21.85;17.12;98626.78;5051973;28;19925;-90
2023/03/29 10:52:45;;;;;;;;;;;;;;;21.69;18.02;98626.44;5050428;28;19942;-91
2023/03/29 10:55:12;;;;;;;;;;;;;;;22.02;18.97;98627.91;5050715;28;19925;-90
2023/03/29 10:57:47;;;;;;;;;;;;;;;22.81;18.47;98618.63;5050046;28;19928;-90
2023/03/29 11:00:13;;;;;;;;;;;;;;;22.83;15.38;98604.19;5048614;28;19920;-89
2023/03/29 11:02:58;;;;;;;;;;;;;;;22.47;15.96;98610.06;5046140;28;19921;-89
2023/03/29 11:05:28;;;;;;;;;;;;;;;22.47;16.56;98606.47;5043731;28;20067;-92
2023/03/29 11:08:13;;;;;;;;;;;;;;;22.90;17.69;98606.94;5049733;28;19924;-89
2023/03/29 11:10:49;;;;;;;;;;;;;;;23.25;17.72;98606.59;5049135;28;19925;-88
2023/03/29 11:13:22;;;;;;;;;;;;;;;23.75;17.71;98601.28;5034435;28;19975;-88
2023/03/29 11:16:07;;;;;;;;;;;;;;;23.72;17.19;98597.31;5044576;28;20012;-88
2023/03/29 11:19:11;;;;;;;;;;;;;;;23.48;16.37;98608.81;5048202;28;19927;-87
2023/03/29 11:22:00;;;;;;;;;;;;;;;22.11;18.05;98597.50;5008051;28;20024;-85
2023/03/29 11:24:26;;;;;;;;;;;;;;;22.71;18.83;98599.13;5008227;28;19926;-85
2023/03/29 11:27:11;;;;;;;;;;;;;;;23.04;17.59;98596.41;5015514;28;20019;-85
2023/03/29 11:29:59;;;;;;;;;;;;;;;23.11;17.31;98587.94;5044902;28;19913;-84
2023/03/29 11:32:46;;;;;;;;;;;;;;;21.89;18.68;98599.59;5047658;28;19921;-85
2023/03/29 11:35:22;;;;;;;;;;;;;;;20.51;20.08;98589.88;5050207;28;19921;-85
2023/03/29 11:38:11;;;;;;;;;;;;;;;21.99;19.54;98586.78;5051384;28;19917;-85
2023/03/29 11:40:43;;;;;;;;;;;;;;;22.78;18.58;98580.25;5010081;28;20007;-86
2023/03/29 11:43:17;;;;;;;;;;;;;;;23.01;19.08;98568.47;5047286;28;19921;-86
2023/03/29 11:45:48;;;;;;;;;;;;;;;23.40;17.58;98568.88;5048023;28;19920;-86
2023/03/29 11:48:20;;;;;;;;;;;;;;;23.47;18.07;98565.97;5047339;28;19979;-86
2023/03/29 11:50:48;;;;;;;;;;;;;;;23.19;17.36;98572.66;5053239;28;19932;-86
2023/03/29 11:53:19;;;;;;;;;;;;;;;23.62;17.43;98564.56;5049318;28;20379;-87
2023/03/29 11:55:46;;;;;;;;;;;;;;;24.11;17.47;98568.00;5046553;28;19923;-85
2023/03/29 11:58:16;;;;;;;;;;;;;;;23.09;17.51;98565.16;5048868;28;20011;-85
2023/03/29 12:00:55;;;;;;;;;;;;;;;23.55;16.27;98561.84;5028393;28;19917;-86
2023/03/29 12:03:35;;;;;;;;;;;;;;;24.03;17.03;98559.63;5044433;28;19924;-86
2023/03/29 12:06:10;;;;;;;;;;;;;;;24.16;17.18;98570.28;5044214;28;19917;-86
2023/03/29 12:08:38;;;;;;;;;;;;;;;24.64;17.91;98551.13;5045023;28;19921;-86
2023/03/29 12:11:24;;;;;;;;;;;;;;;24.98;18.23;98551.75;5043414;28;20039;-86
2023/03/29 12:13:57;;;;;;;;;;;;;;;24.51;16.64;98548.09;5050168;28;19964;-88
2023/03/29 12:16:30;;;;;;;;;;;;;;;24.54;17.37;98549.25;5047592;28;19959;-88
2023/03/29 12:18:58;;;;;;;;;;;;;;;24.52;18.63;98538.47;5046469;28;20299;-90
2023/03/29 12:21:27;;;;;;;;;;;;;;;24.87;18.52;98534.28;5049975;28;20007;-88
2023/03/29 12:23:53;;;;;;;;;;;;;;;24.93;18.94;98526.94;5046238;28;19921;-88
2023/03/29 12:26:52;;;;;;;;;;;;;;;22.19;22.33;98542.31;5044332;28;19940;-88
2023/03/29 12:29:18;;;;;;;;;;;;;;;19.83;20.41;98538.78;5017042;28;20861;-87
2023/03/29 12:31:47;;;;;;;;;;;;;;;20.73;24.49;98543.22;5042897;28;20019;-88
2023/03/29 12:34:40;;;;;;;;;;;;;;;22.16;18.32;98540.34;5053498;28;20011;-88
2023/03/29 12:37:20;;;;;;;;;;;;;;;23.03;19.34;98532.44;5046902;28;20276;-88
2023/03/29 12:39:47;;;;;;;;;;;;;;;23.54;17.67;98531.47;5044925;28;20283;-89
2023/03/29 12:42:19;;;;;;;;;;;;;;;23.04;13.66;98523.59;5048611;28;20015;-87
2023/03/29 12:44:50;;;;;;;;;;;;;;;21.16;19.32;98526.06;5043774;28;19986;-87
2023/03/29 12:47:19;;;;;;;;;;;;;;;21.13;22.48;98529.63;5044817;28;19933;-86
2023/03/29 12:49:46;;;;;;;;;;;;;;;21.49;18.66;98521.13;5040903;28;19921;-88
2023/03/29 12:52:22;;;;;;;;;;;;;;;22.49;19.32;98518.13;5038467;28;19932;-88
2023/03/29 12:54:55;;;;;;;;;;;;;;;23.18;18.42;98512.22;5045099;28;19916;-87
2023/03/29 12:57:41;;;;;;;;;;;;;;;23.80;18.39;98509.09;5043091;28;19920;-87